createdAt,value
2023-09-17T00:05:49.733Z,18.42
2023-09-17T00:15:53.345Z,15.70
2023-09-17T00:25:55.247Z,14.50
2023-09-17T00:35:57.110Z,16.58
2023-09-17T00:45:58.972Z,17.20
2023-09-17T00:56:00.756Z,17.73
2023-09-17T01:06:04.502Z,13.97
2023-09-17T01:16:07.016Z,14.07
2023-09-17T01:26:18.239Z,17.02
2023-09-17T01:36:37.078Z,16.50
2023-09-17T01:46:42.263Z,20.30
2023-09-17T01:56:44.578Z,17.00
2023-09-17T02:16:49.045Z,16.07
2023-09-17T02:26:50.858Z,17.43
2023-09-17T02:36:53.481Z,14.03
2023-09-17T02:46:56.470Z,16.42
2023-09-17T02:56:58.303Z,17.80
2023-09-17T03:06:59.997Z,13.43
2023-09-17T03:17:02.900Z,16.37
2023-09-17T03:27:04.802Z,15.65
2023-09-17T03:37:06.434Z,13.80
2023-09-17T03:47:09.728Z,15.00
2023-09-17T03:57:11.718Z,18.67
2023-09-17T04:07:13.517Z,15.43
2023-09-17T04:27:17.961Z,13.98
2023-09-17T04:37:21.288Z,14.30
2023-09-17T04:47:23.017Z,13.70
2023-09-17T04:57:24.642Z,17.37
2023-09-17T05:07:26.301Z,16.37
2023-09-17T05:17:28.316Z,17.87
2023-09-17T05:27:30.139Z,15.13
2023-09-17T05:37:32.460Z,16.43
2023-09-17T05:47:35.433Z,15.95
2023-09-17T05:57:38.230Z,15.82
2023-09-17T06:07:40.115Z,14.45
2023-09-17T06:17:42.881Z,16.92
2023-09-17T06:27:44.677Z,13.80
2023-09-17T06:37:46.300Z,15.48
2023-09-17T06:47:48.454Z,12.32
2023-09-17T06:57:50.222Z,11.20
2023-09-17T07:07:52.635Z,9.00
2023-09-17T07:17:55.441Z,9.98
2023-09-17T07:27:57.295Z,15.63
2023-09-17T07:38:00.646Z,8.25
2023-09-17T07:48:05.623Z,10.15
2023-09-17T07:58:07.430Z,11.73
2023-09-17T08:08:09.214Z,13.88
2023-09-17T08:18:11.204Z,14.30
2023-09-17T08:28:16.506Z,13.23
2023-09-17T08:38:19.933Z,11.93
2023-09-17T08:48:21.805Z,15.82
2023-09-17T08:58:33.042Z,10.80
2023-09-17T09:08:37.461Z,12.05
2023-09-17T09:18:39.777Z,10.88
2023-09-17T09:28:41.536Z,10.90
2023-09-17T09:38:43.769Z,10.23
2023-09-17T09:48:46.512Z,14.50
2023-09-17T09:58:48.402Z,12.20
2023-09-17T10:08:53.730Z,10.20
2023-09-17T10:18:55.580Z,11.60
2023-09-17T10:28:57.288Z,13.35
2023-09-17T10:39:00.980Z,12.02
2023-09-17T10:49:05.486Z,7.45
2023-09-17T10:59:08.133Z,8.90
2023-09-17T11:09:12.802Z,10.98
2023-09-17T11:19:18.224Z,7.18
2023-09-17T11:29:20.357Z,9.38
2023-09-17T11:39:23.753Z,10.70
2023-09-17T11:49:26.056Z,9.65
2023-09-17T11:59:29.747Z,10.70
2023-09-17T12:09:44.965Z,5.75
2023-09-17T12:19:47.695Z,8.00
2023-09-17T12:29:50.803Z,8.02
2023-09-17T12:39:54.081Z,8.45
2023-09-17T12:49:56.852Z,7.15
2023-09-17T13:00:00.356Z,7.85
2023-09-17T13:10:02.540Z,7.05
2023-09-17T13:20:05.097Z,8.75
2023-09-17T13:30:10.449Z,9.40
2023-09-17T13:40:13.017Z,8.35
2023-09-17T13:50:15.494Z,7.90
2023-09-17T14:00:20.923Z,9.18
2023-09-17T14:10:24.997Z,9.30
2023-09-17T14:20:27.433Z,8.45
2023-09-17T14:30:41.837Z,7.57
2023-09-17T14:40:44.483Z,10.27
2023-09-17T14:50:48.205Z,9.20
2023-09-17T15:00:52.667Z,8.70
2023-09-17T15:10:56.117Z,8.18
2023-09-17T15:20:59.580Z,7.53
2023-09-17T15:31:05.086Z,11.30
2023-09-17T15:41:07.611Z,8.63
2023-09-17T15:51:11.168Z,9.60
2023-09-17T16:01:13.665Z,9.82
2023-09-17T16:11:16.646Z,15.95
2023-09-17T16:21:20.755Z,10.75
2023-09-17T16:31:23.863Z,14.50
2023-09-17T16:41:26.112Z,16.83
2023-09-17T16:51:28.101Z,12.30
2023-09-17T17:01:34.575Z,13.55
2023-09-17T17:11:38.492Z,17.38
2023-09-17T17:21:41.480Z,13.77
2023-09-17T17:31:44.625Z,16.02
2023-09-17T17:41:47.215Z,13.25
2023-09-17T17:51:51.577Z,15.10
2023-09-17T18:01:56.354Z,16.83
2023-09-17T18:12:01.035Z,20.92
2023-09-17T18:22:05.206Z,19.23
2023-09-17T18:32:11.312Z,17.10
2023-09-17T18:42:14.394Z,14.98
2023-09-17T18:52:18.961Z,13.50
2023-09-17T19:02:24.584Z,14.45
2023-09-17T19:12:31.115Z,16.05
2023-09-17T19:22:33.598Z,14.30
2023-09-17T19:32:40.795Z,13.30
2023-09-17T19:42:44.006Z,16.10
2023-09-17T19:52:48.166Z,12.80
2023-09-17T20:02:52.989Z,12.93
2023-09-17T20:12:55.778Z,10.88
2023-09-17T20:22:59.443Z,14.50
2023-09-17T20:33:02.106Z,13.25
2023-09-17T20:43:04.527Z,12.23
2023-09-17T20:53:07.207Z,18.08
2023-09-17T21:03:09.164Z,11.55
2023-09-17T21:13:12.158Z,11.82
2023-09-17T21:23:14.021Z,10.95
2023-09-17T21:33:17.666Z,12.60
2023-09-17T21:43:21.021Z,13.68
2023-09-17T21:53:29.029Z,14.75
2023-09-17T22:03:31.133Z,14.52
2023-09-17T22:13:34.256Z,9.95
2023-09-17T22:23:36.633Z,10.95
2023-09-17T22:33:41.053Z,10.60
2023-09-17T22:43:50.718Z,11.90
2023-09-17T22:53:53.524Z,11.02
2023-09-17T23:03:55.196Z,11.48
2023-09-17T23:23:59.443Z,13.15
2023-09-17T23:34:01.276Z,13.68
2023-09-17T23:44:03.272Z,16.20
2023-09-17T23:54:05.204Z,15.10
